createdAt,value
2022-11-14T00:01:33.706Z,65.12
2022-11-14T00:04:40.471Z,65.24
2022-11-14T00:07:47.449Z,65.08
2022-11-14T00:10:54.599Z,65.15
2022-11-14T00:14:00.334Z,65.37
2022-11-14T00:17:07.037Z,65.21
2022-11-14T00:20:13.430Z,64.96
2022-11-14T00:23:19.615Z,64.98
2022-11-14T00:26:27.058Z,64.94
2022-11-14T00:29:32.991Z,65.36
2022-11-14T00:32:38.647Z,65.15
2022-11-14T00:35:51.829Z,65.16
2022-11-14T00:38:57.600Z,65.27
2022-11-14T00:42:04.537Z,65.23
2022-11-14T00:45:10.994Z,65.14
2022-11-14T00:48:17.035Z,64.82
2022-11-14T00:51:22.178Z,64.90
2022-11-14T00:54:27.607Z,64.93
2022-11-14T00:57:35.088Z,64.81
2022-11-14T01:00:40.710Z,64.56
2022-11-14T01:03:49.189Z,64.64
2022-11-14T01:06:54.874Z,64.53
2022-11-14T01:10:00.420Z,64.24
2022-11-14T01:13:07.620Z,64.12
2022-11-14T01:16:13.684Z,64.03
2022-11-14T01:19:19.822Z,64.05
2022-11-14T01:22:25.397Z,64.08
2022-11-14T01:25:30.875Z,63.91
2022-11-14T01:28:39.005Z,63.79
2022-11-14T01:31:44.682Z,63.80
2022-11-14T01:34:50.161Z,63.37
2022-11-14T01:37:55.403Z,62.91
2022-11-14T01:41:01.001Z,62.73
2022-11-14T01:44:13.610Z,62.57
2022-11-14T01:47:22.008Z,62.90
2022-11-14T01:50:29.350Z,62.88
2022-11-14T01:53:35.441Z,62.94
2022-11-14T01:56:46.252Z,62.60
2022-11-14T01:59:55.875Z,62.66
2022-11-14T02:03:01.922Z,62.29
2022-11-14T02:06:10.089Z,62.21
2022-11-14T02:09:15.675Z,62.63
2022-11-14T02:12:22.000Z,62.56
2022-11-14T02:15:28.827Z,62.63
2022-11-14T02:18:34.040Z,62.98
2022-11-14T02:21:40.507Z,63.32
2022-11-14T02:24:46.259Z,63.19
2022-11-14T02:27:52.622Z,62.86
2022-11-14T02:30:58.079Z,62.70
2022-11-14T02:34:04.080Z,62.45
2022-11-14T02:37:10.897Z,62.33
2022-11-14T02:40:16.188Z,62.35
2022-11-14T02:43:21.580Z,62.88
2022-11-14T02:46:27.243Z,62.65
2022-11-14T02:49:32.478Z,62.48
2022-11-14T02:52:39.263Z,64.33
2022-11-14T02:55:44.625Z,64.61
2022-11-14T02:58:50.268Z,63.72
2022-11-14T03:01:55.969Z,63.37
2022-11-14T03:05:01.582Z,63.11
2022-11-14T03:08:08.121Z,63.01
2022-11-14T03:11:13.847Z,62.87
2022-11-14T03:14:19.108Z,62.77
2022-11-14T03:17:24.668Z,62.60
2022-11-14T03:20:30.027Z,62.41
2022-11-14T03:23:37.044Z,62.21
2022-11-14T03:26:42.759Z,62.47
2022-11-14T03:29:48.388Z,62.65
2022-11-14T03:32:53.827Z,63.48
2022-11-14T03:35:59.170Z,62.92
2022-11-14T03:39:06.890Z,62.60
2022-11-14T03:42:12.129Z,62.88
2022-11-14T03:45:17.660Z,62.99
2022-11-14T03:48:23.218Z,63.23
2022-11-14T03:51:28.768Z,63.42
2022-11-14T03:54:35.685Z,63.40
2022-11-14T03:57:41.154Z,63.57
2022-11-14T04:00:47.206Z,63.63
2022-11-14T04:03:52.629Z,63.80
2022-11-14T04:06:57.940Z,63.80
2022-11-14T04:10:05.675Z,63.25
2022-11-14T04:13:11.372Z,62.93
2022-11-14T04:16:16.640Z,62.68
2022-11-14T04:19:22.008Z,62.56
2022-11-14T04:22:27.497Z,62.70
2022-11-14T04:25:34.253Z,63.22
2022-11-14T04:28:40.215Z,63.23
2022-11-14T04:31:45.854Z,63.25
2022-11-14T04:34:51.586Z,63.19
2022-11-14T04:37:57.324Z,63.25
2022-11-14T04:41:04.503Z,63.14
2022-11-14T04:44:10.037Z,62.94
2022-11-14T04:47:15.511Z,63.06
2022-11-14T04:50:20.845Z,62.69
2022-11-14T04:53:26.073Z,62.90
2022-11-14T04:56:33.130Z,62.60
2022-11-14T04:59:38.392Z,62.61
2022-11-14T05:02:44.156Z,62.50
2022-11-14T05:05:49.977Z,62.64
2022-11-14T05:08:55.493Z,62.85
2022-11-14T05:12:02.052Z,62.88
2022-11-14T05:15:08.616Z,62.99
2022-11-14T05:18:14.013Z,62.88
2022-11-14T05:21:19.423Z,63.13
2022-11-14T05:24:25.290Z,63.71
2022-11-14T05:27:32.331Z,63.25
2022-11-14T05:30:37.979Z,63.20
2022-11-14T05:33:43.501Z,63.32
2022-11-14T05:36:48.749Z,64.59
2022-11-14T05:39:54.267Z,63.90
2022-11-14T05:43:00.904Z,63.67
2022-11-14T05:46:07.970Z,64.14
2022-11-14T05:49:15.790Z,64.34
2022-11-14T05:52:23.485Z,64.54
2022-11-14T05:55:28.820Z,64.16
2022-11-14T05:58:36.647Z,63.60
2022-11-14T06:01:42.242Z,63.56
2022-11-14T06:04:47.700Z,63.44
2022-11-14T06:07:57.333Z,63.40
2022-11-14T06:11:05.113Z,64.53
2022-11-14T06:14:12.095Z,64.26
2022-11-14T06:17:17.529Z,63.69
2022-11-14T06:20:23.273Z,63.39
2022-11-14T06:23:29.570Z,63.33
2022-11-14T06:26:34.943Z,63.18
2022-11-14T06:29:41.676Z,62.91
2022-11-14T06:32:46.982Z,62.75
2022-11-14T06:35:52.225Z,63.12
2022-11-14T06:38:57.556Z,63.04
2022-11-14T06:42:03.519Z,63.31
2022-11-14T06:45:11.830Z,63.33
2022-11-14T06:48:17.459Z,63.55
2022-11-14T06:51:22.789Z,63.61
2022-11-14T06:54:28.197Z,63.69
2022-11-14T06:57:33.748Z,63.62
2022-11-14T07:00:40.506Z,63.77
2022-11-14T07:03:46.057Z,63.93
2022-11-14T07:06:51.462Z,63.68
2022-11-14T07:09:58.865Z,63.66
2022-11-14T07:13:04.198Z,63.75
2022-11-14T07:16:11.195Z,63.53
2022-11-14T07:19:17.255Z,63.67
2022-11-14T07:22:22.990Z,63.90
2022-11-14T07:25:28.632Z,64.05
2022-11-14T07:28:35.805Z,64.34
2022-11-14T07:31:43.175Z,64.11
2022-11-14T07:34:48.883Z,64.04
2022-11-14T07:37:55.028Z,64.19
2022-11-14T07:41:01.843Z,64.07
2022-11-14T07:44:07.829Z,64.26
2022-11-14T07:47:14.857Z,64.15
2022-11-14T07:50:20.807Z,64.05
2022-11-14T07:53:26.157Z,63.53
2022-11-14T07:56:31.750Z,63.29
2022-11-14T07:59:37.125Z,63.55
2022-11-14T08:02:44.099Z,63.56
2022-11-14T08:05:49.830Z,63.94
2022-11-14T08:08:55.761Z,64.12
2022-11-14T08:12:01.535Z,63.64
2022-11-14T08:15:08.503Z,64.22
2022-11-14T08:18:15.526Z,64.21
2022-11-14T08:21:21.317Z,64.33
2022-11-14T08:24:26.940Z,64.23
2022-11-14T08:41:57.060Z,63.32
2022-11-14T08:45:02.489Z,63.32
2022-11-14T08:48:07.755Z,63.67
2022-11-14T08:51:13.067Z,63.87
2022-11-14T08:54:18.655Z,63.78
2022-11-14T08:57:25.778Z,62.81
2022-11-14T09:00:31.039Z,63.32
2022-11-14T09:03:36.545Z,62.95
2022-11-14T09:06:42.227Z,63.36
2022-11-14T09:09:47.357Z,62.40
2022-11-14T09:12:57.793Z,62.95
2022-11-14T09:16:03.431Z,62.14
2022-11-14T09:19:09.043Z,62.08
2022-11-14T09:22:14.503Z,62.48
2022-11-14T09:25:19.921Z,62.32
2022-11-14T09:28:26.910Z,61.95
2022-11-14T09:31:32.191Z,61.37
2022-11-14T09:34:42.837Z,61.75
2022-11-14T09:37:48.758Z,61.46
2022-11-14T09:41:06.322Z,61.77
2022-11-14T09:44:54.397Z,61.37
2022-11-14T09:48:09.594Z,60.22
2022-11-14T09:51:18.260Z,60.79
2022-11-14T09:54:26.042Z,61.60
2022-11-14T09:57:31.994Z,61.94
2022-11-14T10:00:48.562Z,62.07
2022-11-14T10:04:09.244Z,61.70
2022-11-14T10:07:27.362Z,60.06
2022-11-14T10:10:44.934Z,60.48
2022-11-14T10:14:24.449Z,60.06
2022-11-14T10:18:08.669Z,60.04
2022-11-14T10:21:30.069Z,59.21
2022-11-14T10:25:16.858Z,60.62
2022-11-14T10:28:34.659Z,60.00
2022-11-14T10:31:52.684Z,61.36
2022-11-14T10:35:05.181Z,61.11
2022-11-14T10:38:19.835Z,60.92
2022-11-14T10:41:54.992Z,61.13
2022-11-14T10:45:02.081Z,60.53
2022-11-14T10:48:14.148Z,60.12
2022-11-14T10:51:25.608Z,60.51
2022-11-14T10:54:38.005Z,60.93
2022-11-14T10:57:44.355Z,59.96
2022-11-14T11:00:50.140Z,60.61
2022-11-14T11:03:55.623Z,60.86
2022-11-14T11:07:34.850Z,60.88
2022-11-14T11:11:01.980Z,60.23
2022-11-14T11:14:18.063Z,60.72
2022-11-14T11:17:28.386Z,60.52
2022-11-14T11:20:42.050Z,60.78
2022-11-14T11:23:53.263Z,60.19
2022-11-14T11:27:22.827Z,59.93
2022-11-14T11:30:28.298Z,58.83
2022-11-14T11:33:35.609Z,60.49
2022-11-14T11:36:46.491Z,60.49
2022-11-14T11:39:56.927Z,59.86
2022-11-14T11:43:37.879Z,59.84
2022-11-14T11:46:50.800Z,59.93
2022-11-14T11:49:56.136Z,59.00
2022-11-14T11:53:14.183Z,60.04
2022-11-14T11:56:26.063Z,59.47
2022-11-14T11:59:36.317Z,59.19
2022-11-14T12:02:49.536Z,59.44
2022-11-14T12:06:05.991Z,59.48
2022-11-14T12:09:19.305Z,58.64
2022-11-14T12:12:38.751Z,59.45
2022-11-14T12:15:55.334Z,59.28
2022-11-14T12:19:29.220Z,57.99
2022-11-14T12:23:16.630Z,56.00
2022-11-14T12:26:40.980Z,55.66
2022-11-14T12:29:55.168Z,57.19
2022-11-14T12:33:09.765Z,58.09
2022-11-14T12:36:15.442Z,57.82
2022-11-14T12:39:25.918Z,58.63
2022-11-14T12:42:32.864Z,57.84
2022-11-14T12:45:58.362Z,58.07
2022-11-14T12:49:38.115Z,56.63
2022-11-14T12:52:48.719Z,57.12
2022-11-14T12:56:13.877Z,58.10
2022-11-14T12:59:27.636Z,57.17
2022-11-14T13:03:02.900Z,58.23
2022-11-14T13:06:17.648Z,56.95
2022-11-14T13:09:33.835Z,58.08
2022-11-14T13:12:57.510Z,57.71
2022-11-14T13:16:36.883Z,58.13
2022-11-14T13:20:05.441Z,58.16
2022-11-14T13:23:49.785Z,57.77
2022-11-14T13:27:16.680Z,56.71
2022-11-14T13:30:55.582Z,57.63
2022-11-14T13:34:02.413Z,56.34
2022-11-14T13:37:22.571Z,56.98
2022-11-14T13:40:34.473Z,56.22
2022-11-14T13:43:57.433Z,56.88
2022-11-14T13:47:20.347Z,56.04
2022-11-14T13:50:30.961Z,56.09
2022-11-14T13:53:39.876Z,56.99
2022-11-14T13:57:01.072Z,57.11
2022-11-14T14:00:19.749Z,56.51
2022-11-14T14:03:50.272Z,56.59
2022-11-14T14:07:08.563Z,56.68
2022-11-14T14:10:27.214Z,56.25
2022-11-14T14:13:52.434Z,56.65
2022-11-14T14:17:08.732Z,56.69
2022-11-14T14:20:27.013Z,57.56
2022-11-14T14:23:41.282Z,57.74
2022-11-14T14:27:02.238Z,57.50
2022-11-14T14:30:12.386Z,57.53
2022-11-14T14:33:19.579Z,57.74
2022-11-14T14:36:26.693Z,58.12
2022-11-14T14:39:32.308Z,58.24
2022-11-14T14:42:40.521Z,58.11
2022-11-14T14:45:49.431Z,58.06
2022-11-14T14:48:57.315Z,58.13
2022-11-14T14:52:03.051Z,58.21
2022-11-14T14:55:20.248Z,57.94
2022-11-14T14:58:28.351Z,58.10
2022-11-14T15:01:36.511Z,58.58
2022-11-14T15:04:43.526Z,58.73
2022-11-14T15:07:50.494Z,58.78
2022-11-14T15:10:59.396Z,59.02
2022-11-14T15:14:05.408Z,59.10
2022-11-14T15:17:11.729Z,59.12
2022-11-14T15:20:27.478Z,59.29
2022-11-14T15:23:33.425Z,59.44
2022-11-14T15:26:39.396Z,59.19
2022-11-14T15:29:47.492Z,58.99
2022-11-14T15:32:55.382Z,59.13
2022-11-14T15:36:12.283Z,59.37
2022-11-14T15:39:28.061Z,59.18
2022-11-14T15:42:33.940Z,58.99
2022-11-14T15:45:41.607Z,59.43
2022-11-14T15:48:47.837Z,59.34
2022-11-14T15:51:57.540Z,59.09
2022-11-14T15:55:03.828Z,59.23
2022-11-14T16:01:35.717Z,59.29
2022-11-14T16:04:47.028Z,59.35
2022-11-14T16:07:54.776Z,60.14
2022-11-14T16:11:00.415Z,59.90
2022-11-14T16:14:06.345Z,59.81
2022-11-14T16:17:15.312Z,59.73
2022-11-14T16:20:23.557Z,59.69
2022-11-14T16:23:30.797Z,59.89
2022-11-14T16:26:38.056Z,59.52
2022-11-14T16:29:43.756Z,59.69
2022-11-14T16:32:50.913Z,60.00
2022-11-14T16:35:56.462Z,59.87
2022-11-14T16:39:10.420Z,59.51
2022-11-14T16:42:15.456Z,59.74
2022-11-14T16:45:21.241Z,59.88
2022-11-14T16:48:27.392Z,59.58
2022-11-14T16:51:49.992Z,59.90
2022-11-14T16:54:57.688Z,60.00
2022-11-14T16:58:03.078Z,60.25
2022-11-14T17:01:14.374Z,59.91
2022-11-14T17:04:22.300Z,59.95
2022-11-14T17:07:30.600Z,59.97
2022-11-14T17:10:42.373Z,60.04
2022-11-14T17:13:48.012Z,60.46
2022-11-14T17:16:53.595Z,60.31
2022-11-14T17:20:00.114Z,60.21
2022-11-14T17:23:05.558Z,60.69
2022-11-14T17:26:14.573Z,60.31
2022-11-14T17:29:20.593Z,60.31
2022-11-14T17:32:26.172Z,60.39
2022-11-14T17:35:31.568Z,60.47
2022-11-14T17:38:38.452Z,60.32
2022-11-14T17:41:45.216Z,60.19
2022-11-14T17:44:50.480Z,60.08
2022-11-14T17:47:55.733Z,60.17
2022-11-14T17:51:05.540Z,59.83
2022-11-14T17:54:10.987Z,59.96
2022-11-14T17:57:17.566Z,60.12
2022-11-14T18:00:23.184Z,60.22
2022-11-14T18:03:29.401Z,60.59
2022-11-14T18:06:35.546Z,60.43
2022-11-14T18:09:41.483Z,60.33
2022-11-14T18:12:48.669Z,59.99
2022-11-14T18:15:54.198Z,59.99
2022-11-14T18:18:59.509Z,60.19
2022-11-14T18:22:04.938Z,60.34
2022-11-14T18:25:10.679Z,60.42
2022-11-14T18:28:17.844Z,60.77
2022-11-14T18:31:24.910Z,60.73
2022-11-14T18:34:30.763Z,60.69
2022-11-14T18:37:36.391Z,60.85
2022-11-14T18:40:44.484Z,61.13
2022-11-14T18:43:56.054Z,60.90
2022-11-14T18:47:01.796Z,60.93
2022-11-14T18:50:08.257Z,60.42
2022-11-14T18:53:14.268Z,60.19
2022-11-14T18:56:21.761Z,60.09
2022-11-14T18:59:29.181Z,60.08
2022-11-14T19:02:34.861Z,60.53
2022-11-14T19:05:40.396Z,60.48
2022-11-14T19:08:45.924Z,60.81
2022-11-14T19:12:09.259Z,60.68
2022-11-14T19:15:16.333Z,60.55
2022-11-14T19:18:22.085Z,60.73
2022-11-14T19:21:27.703Z,60.90
2022-11-14T19:24:33.970Z,60.70
2022-11-14T19:27:39.987Z,60.44
2022-11-14T19:30:46.982Z,60.28
2022-11-14T19:33:52.241Z,60.24
2022-11-14T19:37:00.698Z,60.16
2022-11-14T19:40:08.359Z,60.06
2022-11-14T19:43:14.205Z,60.30
2022-11-14T19:46:21.774Z,60.79
2022-11-14T19:49:27.709Z,60.68
2022-11-14T19:52:33.553Z,60.62
2022-11-14T19:55:38.981Z,60.48
2022-11-14T19:58:47.300Z,60.27
2022-11-14T20:01:55.551Z,60.34
2022-11-14T20:05:01.694Z,60.40
2022-11-14T20:08:07.517Z,60.60
2022-11-14T20:11:13.018Z,60.64
2022-11-14T20:14:19.364Z,60.67
2022-11-14T20:17:26.278Z,60.90
2022-11-14T20:20:31.793Z,60.56
2022-11-14T20:23:37.615Z,60.72
2022-11-14T20:26:43.451Z,61.24
2022-11-14T20:29:49.091Z,61.17
2022-11-14T20:32:56.266Z,61.43
2022-11-14T20:36:06.751Z,61.27
2022-11-14T20:39:12.090Z,60.87
2022-11-14T20:42:17.708Z,60.58
2022-11-14T20:45:23.336Z,60.78
2022-11-14T20:48:31.687Z,60.51
2022-11-14T20:51:37.661Z,60.67
2022-11-14T20:54:42.943Z,60.43
2022-11-14T20:57:48.455Z,60.28
2022-11-14T21:00:54.374Z,60.37
2022-11-14T21:04:01.380Z,60.39
2022-11-14T21:07:06.954Z,60.25
2022-11-14T21:10:30.085Z,60.25
2022-11-14T21:13:54.244Z,60.32
2022-11-14T21:16:59.982Z,60.58
2022-11-14T21:20:08.220Z,60.75
2022-11-14T21:23:13.961Z,60.70
2022-11-14T21:26:22.328Z,60.81
2022-11-14T21:29:27.838Z,60.87
2022-11-14T21:32:36.362Z,61.02
2022-11-14T21:35:43.512Z,61.01
2022-11-14T21:38:49.558Z,60.69
2022-11-14T21:41:55.499Z,60.54
2022-11-14T21:45:01.046Z,60.55
2022-11-14T21:48:06.904Z,61.02
2022-11-14T21:51:15.465Z,61.15
2022-11-14T21:54:23.508Z,60.75
2022-11-14T21:57:29.401Z,60.61
2022-11-14T22:00:34.758Z,60.59
2022-11-14T22:03:58.976Z,60.28
2022-11-14T22:07:08.439Z,60.44
2022-11-14T22:10:14.122Z,60.73
2022-11-14T22:13:19.494Z,60.62
2022-11-14T22:16:25.802Z,60.67
2022-11-14T22:19:31.545Z,60.61
2022-11-14T22:22:38.228Z,60.64
2022-11-14T22:25:43.732Z,60.48
2022-11-14T22:28:49.660Z,60.47
2022-11-14T22:31:56.600Z,60.62
2022-11-14T22:35:02.149Z,60.74
2022-11-14T22:38:08.803Z,60.92
2022-11-14T22:41:15.937Z,61.05
2022-11-14T22:44:21.269Z,61.16
2022-11-14T22:47:26.582Z,61.25
2022-11-14T22:50:31.992Z,61.10
2022-11-14T22:53:39.222Z,61.03
2022-11-14T22:56:44.999Z,61.08
2022-11-14T22:59:50.581Z,61.14
2022-11-14T23:02:56.765Z,61.27
2022-11-14T23:06:07.641Z,61.45
2022-11-14T23:09:14.507Z,61.58
2022-11-14T23:12:20.116Z,62.15
2022-11-14T23:15:25.908Z,61.79
2022-11-14T23:18:31.946Z,61.58
2022-11-14T23:21:38.963Z,61.57
2022-11-14T23:24:46.025Z,61.69
2022-11-14T23:27:51.382Z,61.72
2022-11-14T23:30:56.977Z,61.57
2022-11-14T23:34:02.632Z,62.19
2022-11-14T23:37:07.752Z,62.31
2022-11-14T23:40:14.703Z,62.44
2022-11-14T23:43:20.451Z,62.33
2022-11-14T23:46:26.714Z,62.30
2022-11-14T23:49:32.790Z,62.23
2022-11-14T23:52:38.262Z,62.49
2022-11-14T23:55:51.744Z,62.16
2022-11-14T23:58:57.475Z,62.03
